Time;durP1;ratioP1;P1;durP2;ratioP2;P2;SDS_P1;SDS_P2;PMS_P1;PMS_P2;Temp;Humidity;BMP_temperature;BMP_pressure;BME280_temperature;BME280_humidity;BME280_pressure;Samples;Min_cycle;Max_cycle;Signal;HPM_P1;HPM_P2
2022/07/11 00:00:05;;;;;;;2.40;2.07;;;;;;;21.32;46.68;96823.50;4818964;29;20729;-74
2022/07/11 00:02:33;;;;;;;2.40;2.23;;;;;;;21.35;46.90;96817.97;4819359;29;20213;-74
2022/07/11 00:05:01;;;;;;;4.90;2.10;;;;;;;21.31;47.13;96811.31;4818759;29;20215;-74
2022/07/11 00:07:29;;;;;;;2.30;2.10;;;;;;;21.29;47.27;96800.09;4819816;29;20218;-75
2022/07/11 00:09:57;;;;;;;2.40;2.20;;;;;;;21.22;47.62;96797.19;4818483;29;20209;-74
2022/07/11 00:12:27;;;;;;;3.37;2.03;;;;;;;21.15;47.76;96811.88;4818972;29;20206;-74
2022/07/11 00:14:55;;;;;;;2.40;2.20;;;;;;;21.04;48.32;96799.69;4818842;29;20234;-75
2022/07/11 00:17:25;;;;;;;2.33;2.10;;;;;;;20.86;48.04;96772.38;4818557;29;20241;-74
2022/07/11 00:19:52;;;;;;;2.93;2.20;;;;;;;20.97;48.53;96803.84;4819420;29;20247;-74
2022/07/11 00:22:20;;;;;;;2.23;2.10;;;;;;;20.97;48.44;96809.09;4818153;29;20198;-74
2022/07/11 00:24:47;;;;;;;3.77;2.60;;;;;;;20.92;48.75;96806.03;4819118;29;20781;-74
2022/07/11 00:27:14;;;;;;;2.20;2.00;;;;;;;20.96;48.59;96809.22;4818173;29;20642;-74
2022/07/11 00:29:41;;;;;;;4.63;2.17;;;;;;;20.86;48.34;96817.13;4818980;29;20202;-74
2022/07/11 00:32:08;;;;;;;2.43;2.23;;;;;;;20.95;48.31;96815.47;4818766;29;20210;-74
2022/07/11 00:34:35;;;;;;;4.53;2.20;;;;;;;20.98;48.19;96815.19;4818623;29;20234;-75
2022/07/11 00:37:02;;;;;;;2.40;1.87;;;;;;;20.93;47.96;96809.50;4819039;29;20221;-75
2022/07/11 00:39:30;;;;;;;2.87;2.30;;;;;;;20.92;48.09;96823.63;4818028;29;20729;-75
2022/07/11 00:41:57;;;;;;;2.73;1.83;;;;;;;20.88;48.20;96828.34;4819156;29;20198;-74
2022/07/11 00:44:24;;;;;;;3.57;2.30;;;;;;;20.82;48.13;96821.00;4818188;29;20198;-75
2022/07/11 00:46:51;;;;;;;2.40;2.20;;;;;;;20.80;48.17;96827.38;4818576;29;20774;-74
2022/07/11 00:49:19;;;;;;;2.73;2.10;;;;;;;20.77;48.15;96831.09;4818374;29;20213;-75
2022/07/11 00:51:46;;;;;;;3.03;2.20;;;;;;;20.72;47.99;96824.59;4817979;29;20275;-74
2022/07/11 00:54:14;;;;;;;2.23;2.03;;;;;;;20.79;48.02;96807.31;4818575;29;20240;-74
2022/07/11 00:56:41;;;;;;;2.40;1.83;;;;;;;20.85;47.80;96826.00;4817777;29;20218;-75
2022/07/11 00:59:08;;;;;;;2.20;2.10;;;;;;;20.95;47.52;96821.56;4819016;29;20262;-74
2022/07/11 01:01:37;;;;;;;1.83;1.70;;;;;;;21.00;47.48;96807.97;4817774;29;20209;-73
2022/07/11 01:04:05;;;;;;;2.30;2.10;;;;;;;20.99;47.89;96814.22;4818378;29;20241;-74
2022/07/11 01:06:32;;;;;;;2.47;1.73;;;;;;;20.78;47.86;96790.66;4818410;29;20237;-75
2022/07/11 01:08:59;;;;;;;3.20;2.10;;;;;;;21.03;47.87;96813.00;4817366;29;20690;-74
2022/07/11 01:11:27;;;;;;;3.73;1.93;;;;;;;21.01;47.79;96814.91;4818355;29;20704;-74
2022/07/11 01:13:54;;;;;;;3.47;2.27;;;;;;;20.98;47.53;96817.81;4817415;29;20260;-74
2022/07/11 01:16:22;;;;;;;3.13;1.97;;;;;;;20.92;47.16;96800.78;4818418;29;20240;-73
2022/07/11 01:18:52;;;;;;;3.33;1.90;;;;;;;20.79;47.23;96810.75;4817759;29;20209;-74
2022/07/11 01:21:42;;;;;;;2.20;2.10;;;;;;;20.66;47.65;96798.84;4818172;29;20274;-74
2022/07/11 01:24:09;;;;;;;2.07;1.90;;;;;;;20.59;47.79;96814.34;4818156;29;20205;-74
2022/07/11 01:26:37;;;;;;;2.77;2.07;;;;;;;20.58;48.02;96807.44;4817410;29;20213;-74
2022/07/11 01:29:09;;;;;;;2.10;1.90;;;;;;;20.54;47.90;96805.19;4818214;29;20762;-75
2022/07/11 01:31:43;;;;;;;2.00;1.90;;;;;;;20.49;47.74;96805.59;4817482;29;20234;-74
2022/07/11 01:34:10;;;;;;;2.00;1.80;;;;;;;20.53;47.83;96814.03;4817973;29;20246;-74
2022/07/11 01:36:38;;;;;;;2.27;1.90;;;;;;;20.57;47.94;96805.75;4818076;29;20344;-74
2022/07/11 01:39:05;;;;;;;2.87;1.80;;;;;;;20.59;47.93;96816.97;4819732;29;20213;-74
2022/07/11 01:41:32;;;;;;;1.90;1.63;;;;;;;20.59;47.48;96819.59;4821718;29;20279;-74
2022/07/11 01:43:59;;;;;;;2.33;1.87;;;;;;;20.62;48.18;96814.09;4820900;29;20785;-74
2022/07/11 01:46:26;;;;;;;2.50;1.90;;;;;;;20.68;48.03;96823.22;4821934;29;20206;-74
2022/07/11 01:48:53;;;;;;;5.00;1.83;;;;;;;20.70;47.32;96808.97;4820730;29;20737;-74
2022/07/11 01:51:22;;;;;;;2.60;2.40;;;;;;;20.72;47.25;96817.53;4821317;29;20258;-74
2022/07/11 01:53:49;;;;;;;2.03;1.83;;;;;;;20.76;46.91;96821.56;4820932;29;20229;-74
2022/07/11 01:56:16;;;;;;;2.00;1.77;;;;;;;20.76;47.12;96847.88;4820643;29;20242;-74
2022/07/11 01:58:48;;;;;;;3.00;2.10;;;;;;;20.78;47.02;96819.63;4805232;29;20266;-74
2022/07/11 02:01:15;;;;;;;4.73;1.90;;;;;;;20.81;46.89;96805.38;4820250;29;20686;-74
2022/07/11 02:03:42;;;;;;;2.03;1.93;;;;;;;21.02;46.08;96820.06;4821311;29;20677;-74
2022/07/11 02:06:10;;;;;;;2.53;1.80;;;;;;;20.87;46.62;96824.06;4820659;29;20710;-73
2022/07/11 02:08:37;;;;;;;2.23;2.00;;;;;;;20.64;47.20;96796.34;4820891;29;20259;-73
2022/07/11 02:11:04;;;;;;;2.53;2.13;;;;;;;20.85;46.97;96825.19;4820767;29;20312;-74
2022/07/11 02:13:32;;;;;;;5.53;2.30;;;;;;;20.88;47.19;96820.47;4820598;29;20241;-74
2022/07/11 02:16:18;;;;;;;2.10;1.87;;;;;;;20.84;47.07;96813.81;4807490;29;20282;-74
2022/07/11 02:18:45;;;;;;;2.23;1.80;;;;;;;20.74;47.21;96827.94;4820133;29;20733;-74
2022/07/11 02:21:13;;;;;;;3.17;2.10;;;;;;;20.78;47.40;96822.25;4820751;29;20209;-74
2022/07/11 02:23:40;;;;;;;5.00;2.50;;;;;;;20.85;47.46;96833.06;4820351;29;20217;-74
2022/07/11 02:26:07;;;;;;;3.13;2.70;;;;;;;20.86;47.33;96827.66;4820593;29;20206;-74
2022/07/11 02:28:36;;;;;;;2.10;1.90;;;;;;;20.83;47.45;96835.84;4820694;29;20240;-74
2022/07/11 02:31:03;;;;;;;3.03;2.43;;;;;;;20.55;49.98;96847.16;4820248;29;20210;-74
2022/07/11 02:33:30;;;;;;;3.50;3.20;;;;;;;20.17;52.46;96845.22;4820762;29;20958;-74
2022/07/11 02:35:57;;;;;;;3.30;2.57;;;;;;;19.92;52.95;96847.50;4820054;29;20262;-74
2022/07/11 02:38:24;;;;;;;3.97;3.60;;;;;;;19.57;54.01;96847.88;4821087;29;20714;-74
2022/07/11 02:40:52;;;;;;;3.50;3.20;;;;;;;19.72;54.35;96866.78;4820483;29;20596;-74
2022/07/11 02:43:19;;;;;;;3.27;2.90;;;;;;;19.66;54.66;96864.66;4820357;29;20362;-74
2022/07/11 02:45:46;;;;;;;3.70;2.73;;;;;;;19.67;54.14;96858.44;4820597;29;20783;-73
2022/07/11 02:48:13;;;;;;;5.40;3.37;;;;;;;19.79;53.92;96865.25;4819982;29;20209;-74
2022/07/11 02:50:40;;;;;;;3.73;2.97;;;;;;;19.75;54.19;96869.13;4820457;29;20216;-74
2022/07/11 02:53:07;;;;;;;3.80;3.10;;;;;;;19.74;54.10;96873.53;4819622;29;20235;-73
2022/07/11 02:55:34;;;;;;;5.83;3.37;;;;;;;19.61;53.79;96872.94;4820224;29;20229;-74
2022/07/11 02:58:01;;;;;;;4.67;2.87;;;;;;;19.55;54.87;96877.88;4820089;29;20265;-74
2022/07/11 03:00:28;;;;;;;4.13;3.33;;;;;;;19.76;54.59;96876.91;4804028;29;20716;-74
2022/07/11 03:02:55;;;;;;;7.17;6.47;;;;;;;19.57;54.25;96875.94;4820365;29;20387;-74
2022/07/11 03:05:22;;;;;;;9.27;4.10;;;;;;;19.56;54.22;96884.78;4820189;29;20212;-74
2022/07/11 03:07:49;;;;;;;2.90;2.70;;;;;;;19.56;54.04;96855.91;4820690;29;20220;-76
2022/07/11 03:10:16;;;;;;;4.90;3.37;;;;;;;19.94;53.15;96885.00;4819574;29;20233;-75
2022/07/11 03:12:43;;;;;;;4.27;2.87;;;;;;;20.06;52.56;96897.09;4820420;29;20213;-75
2022/07/11 03:15:10;;;;;;;6.70;4.07;;;;;;;20.04;52.71;96891.97;4819997;29;20233;-79
2022/07/11 03:17:38;;;;;;;8.10;5.90;;;;;;;20.09;53.06;96891.56;4819961;29;20249;-75
2022/07/11 03:20:05;;;;;;;13.33;5.70;;;;;;;20.09;52.99;96891.56;4820055;29;20239;-73
2022/07/11 03:22:32;;;;;;;10.43;5.63;;;;;;;20.15;53.34;96898.94;4819782;29;20279;-74
2022/07/11 03:25:06;;;;;;;4.40;3.30;;;;;;;20.19;52.76;96902.97;4820100;29;20235;-74
2022/07/11 03:27:34;;;;;;;3.47;2.80;;;;;;;20.14;52.05;96902.50;4819418;29;20205;-74
2022/07/11 03:30:01;;;;;;;2.77;2.50;;;;;;;20.23;51.90;96901.75;4819870;29;20214;-74
2022/07/11 03:32:29;;;;;;;4.77;2.70;;;;;;;20.14;52.90;96898.09;4819653;29;20210;-73
2022/07/11 03:37:41;;;;;;;2.73;2.53;;;;;;;20.18;52.79;96909.19;4819929;29;20217;-75
2022/07/11 03:40:09;;;;;;;3.93;2.73;;;;;;;20.13;52.74;96906.13;4802087;29;20755;-74
2022/07/11 03:42:36;;;;;;;4.77;2.83;;;;;;;20.19;52.54;96897.72;4801777;29;20912;-75
2022/07/11 03:45:04;;;;;;;3.53;3.00;;;;;;;20.19;51.31;96900.34;4801161;29;20248;-75
2022/07/11 03:47:32;;;;;;;3.13;1.63;;;;;;;19.92;50.40;96897.44;4801716;29;20302;-74
2022/07/11 03:50:00;;;;;;;4.90;2.63;;;;;;;20.13;51.43;96901.69;4801207;29;20225;-74
2022/07/11 03:52:28;;;;;;;6.23;2.47;;;;;;;20.35;50.52;96897.22;4801090;29;20250;-74
2022/07/11 03:54:55;;;;;;;2.77;1.90;;;;;;;20.78;48.35;96903.84;4801308;29;20245;-75
2022/07/11 03:57:22;;;;;;;2.90;1.50;;;;;;;20.93;46.57;96897.25;4800630;29;20213;-73
2022/07/11 03:59:49;;;;;;;3.30;1.60;;;;;;;21.25;45.54;96894.34;4801752;29;20276;-72
2022/07/11 04:02:16;;;;;;;3.30;1.70;;;;;;;21.23;45.76;96896.28;4800263;29;20207;-74
2022/07/11 04:04:43;;;;;;;1.90;1.70;;;;;;;21.30;45.63;96893.94;4801364;29;20277;-73
2022/07/11 04:07:10;;;;;;;1.50;1.40;;;;;;;21.43;45.15;96883.97;4800977;29;20732;-73
2022/07/11 04:09:37;;;;;;;1.87;1.63;;;;;;;21.60;44.35;96883.22;4800832;29;20207;-72
2022/07/11 04:12:04;;;;;;;1.40;1.30;;;;;;;21.78;43.82;96881.53;4799373;29;20276;-73
2022/07/11 04:14:32;;;;;;;3.13;1.67;;;;;;;21.80;43.35;96869.03;4806114;29;20994;-73
2022/07/11 04:16:59;;;;;;;2.87;1.23;;;;;;;22.21;42.94;96881.84;4808507;29;20255;-73
2022/07/11 04:19:26;;;;;;;1.40;1.30;;;;;;;22.15;42.28;96890.34;4800844;29;20289;-75
2022/07/11 04:21:53;;;;;;;2.70;1.50;;;;;;;22.29;42.12;96879.31;4800846;29;20260;-71
2022/07/11 04:24:20;;;;;;;2.33;1.63;;;;;;;22.52;41.57;96880.56;4800411;29;20270;-72
2022/07/11 04:26:47;;;;;;;2.03;1.30;;;;;;;22.77;41.32;96883.53;4800398;29;20218;-76
2022/07/11 04:29:14;;;;;;;1.50;1.40;;;;;;;22.78;41.11;96874.59;4800806;29;20214;-75
2022/07/11 04:31:41;;;;;;;2.83;1.37;;;;;;;22.76;41.01;96879.19;4800247;29;20204;-74
2022/07/11 04:34:08;;;;;;;1.40;1.10;;;;;;;22.34;41.18;96850.66;4800973;29;20695;-74
2022/07/11 04:36:35;;;;;;;2.47;1.30;;;;;;;22.65;41.37;96883.72;4800004;29;20205;-75
2022/07/11 04:39:02;;;;;;;2.60;1.17;;;;;;;22.62;40.84;96881.38;4800687;29;20192;-74
2022/07/11 04:41:29;;;;;;;3.03;1.50;;;;;;;22.77;41.00;96880.88;4800329;29;20212;-75
2022/07/11 04:43:56;;;;;;;2.37;1.30;;;;;;;22.67;40.04;96873.84;4800310;29;20309;-74
2022/07/11 04:46:23;;;;;;;3.30;1.40;;;;;;;22.81;40.21;96896.28;4800608;29;20214;-75
2022/07/11 04:48:50;;;;;;;1.50;1.40;;;;;;;22.88;39.79;96881.47;4799640;29;20225;-74
2022/07/11 04:51:17;;;;;;;3.43;1.40;;;;;;;22.93;40.07;96896.88;4800855;29;20217;-76
2022/07/11 04:53:44;;;;;;;1.77;1.20;;;;;;;23.01;39.58;96899.59;4799919;29;20745;-74
2022/07/11 04:56:12;;;;;;;2.80;1.20;;;;;;;22.96;39.63;96900.06;4800249;29;20240;-74
2022/07/11 04:58:39;;;;;;;1.40;1.30;;;;;;;22.97;39.44;96907.00;4800217;29;20224;-75
2022/07/11 05:01:06;;;;;;;2.23;1.23;;;;;;;22.76;40.43;96901.16;4799759;29;20701;-75
2022/07/11 05:03:34;;;;;;;1.20;1.10;;;;;;;22.62;40.06;96907.78;4800397;29;20217;-74
2022/07/11 05:06:01;;;;;;;1.40;1.20;;;;;;;22.57;40.26;96890.69;4799760;29;20606;-75
2022/07/11 05:08:29;;;;;;;2.37;1.10;;;;;;;22.57;40.23;96911.78;4800956;29;20678;-74
2022/07/11 05:10:56;;;;;;;2.23;1.30;;;;;;;22.76;39.31;96905.59;4799741;29;20217;-74
2022/07/11 05:13:23;;;;;;;1.73;1.30;;;;;;;22.79;40.19;96921.16;4800059;29;20724;-75
2022/07/11 05:15:50;;;;;;;1.73;1.43;;;;;;;22.90;39.97;96910.38;4801476;29;20226;-74
2022/07/11 05:18:17;;;;;;;2.67;1.30;;;;;;;23.00;39.61;96911.16;4817989;29;20198;-74
2022/07/11 05:20:45;;;;;;;1.40;1.30;;;;;;;22.99;40.04;96917.41;4818186;29;20829;-74
2022/07/11 05:23:12;;;;;;;2.20;1.40;;;;;;;23.42;38.91;96920.19;4817800;29;20319;-74
2022/07/11 05:25:38;;;;;;;6.00;1.43;;;;;;;23.31;39.08;96923.00;4818668;29;20698;-73
2022/07/11 05:28:06;;;;;;;1.63;1.43;;;;;;;23.08;39.84;96917.34;4817683;29;20213;-75
2022/07/11 05:30:33;;;;;;;1.47;1.37;;;;;;;23.13;39.16;96920.38;4818595;29;20205;-75
2022/07/11 05:33:00;;;;;;;2.33;1.37;;;;;;;23.21;39.01;96920.47;4817826;29;20699;-76
2022/07/11 05:35:27;;;;;;;3.33;1.50;;;;;;;23.57;38.78;96918.66;4817783;29;20574;-75
2022/07/11 05:37:54;;;;;;;1.60;1.20;;;;;;;23.52;38.91;96923.56;4817807;29;20816;-75
2022/07/11 05:40:21;;;;;;;2.80;1.57;;;;;;;23.54;39.25;96926.06;4817293;29;20205;-75
2022/07/11 05:42:48;;;;;;;5.27;1.30;;;;;;;23.41;39.16;96931.75;4818723;29;20249;-74
2022/07/11 05:45:15;;;;;;;1.97;1.30;;;;;;;23.23;39.47;96933.50;4817688;29;20671;-75
2022/07/11 05:47:42;;;;;;;2.20;1.37;;;;;;;23.19;40.55;96929.50;4818196;29;20217;-75
2022/07/11 05:50:09;;;;;;;3.53;1.63;;;;;;;23.65;39.15;96945.19;4817844;29;20293;-74
2022/07/11 05:52:36;;;;;;;2.60;1.40;;;;;;;23.46;39.29;96942.69;4817454;29;20213;-75
2022/07/11 05:55:03;;;;;;;4.30;1.43;;;;;;;23.33;39.39;96953.63;4817786;29;20228;-74
2022/07/11 05:57:30;;;;;;;3.30;1.40;;;;;;;23.32;39.06;96932.66;4817127;29;20210;-74
2022/07/11 05:59:57;;;;;;;1.40;1.30;;;;;;;23.39;38.90;96960.13;4817844;29;20199;-75
2022/07/11 06:02:24;;;;;;;1.83;1.70;;;;;;;23.45;39.51;96948.97;4817181;29;20262;-75
2022/07/11 06:04:51;;;;;;;2.53;1.80;;;;;;;23.39;39.41;96949.53;4817793;29;20220;-75
2022/07/11 06:10:04;;;;;;;1.50;1.40;;;;;;;23.48;39.57;96974.25;4817364;29;20256;-75
2022/07/11 06:12:31;;;;;;;2.23;1.30;;;;;;;23.10;40.40;96970.06;4817759;29;20300;-74
2022/07/11 06:14:58;;;;;;;3.27;2.30;;;;;;;22.96;40.53;96962.59;4817045;29;20244;-74
2022/07/11 06:17:26;;;;;;;2.20;1.80;;;;;;;23.06;40.51;96964.22;4818134;29;20237;-74
2022/07/11 06:19:53;;;;;;;1.73;1.37;;;;;;;23.41;40.06;96979.34;4816977;29;21093;-74
2022/07/11 06:22:20;;;;;;;2.40;1.60;;;;;;;23.47;40.57;96967.31;4817514;29;20211;-74
2022/07/11 06:24:51;;;;;;;3.50;1.50;;;;;;;23.20;40.58;96971.66;4818684;29;20202;-74
2022/07/11 06:27:18;;;;;;;3.43;1.60;;;;;;;23.24;40.21;96969.53;4820240;29;20203;-74
2022/07/11 06:29:45;;;;;;;1.63;1.53;;;;;;;23.38;40.23;96964.59;4820921;29;20221;-74
2022/07/11 06:32:12;;;;;;;1.53;1.33;;;;;;;23.54;39.87;96977.13;4819726;29;20209;-74
2022/07/11 06:34:39;;;;;;;1.57;1.30;;;;;;;23.71;39.41;96976.28;4820380;29;20239;-74
2022/07/11 06:37:06;;;;;;;3.10;1.20;;;;;;;23.74;39.12;96975.97;4819738;29;20210;-75
2022/07/11 06:39:33;;;;;;;1.63;1.20;;;;;;;23.60;38.75;96976.50;4820528;29;20202;-73
2022/07/11 06:42:00;;;;;;;1.77;1.67;;;;;;;23.94;38.71;96980.13;4820197;29;20213;-74
2022/07/11 06:44:27;;;;;;;2.27;1.53;;;;;;;24.25;37.86;96978.69;4820270;29;20215;-75
2022/07/11 06:46:56;;;;;;;2.80;1.40;;;;;;;24.25;37.23;96985.84;4820683;29;20225;-75
2022/07/11 06:49:23;;;;;;;1.43;1.20;;;;;;;24.28;37.27;96996.09;4819615;29;20217;-73
2022/07/11 06:51:50;;;;;;;1.83;1.40;;;;;;;24.19;37.52;96995.19;4820864;29;20255;-74
2022/07/11 06:54:17;;;;;;;1.27;1.13;;;;;;;23.88;38.21;97004.56;4819733;29;20218;-74
2022/07/11 06:56:44;;;;;;;2.60;1.43;;;;;;;23.77;37.91;96990.72;4820644;29;20230;-75
2022/07/11 06:59:11;;;;;;;5.63;1.80;;;;;;;23.81;37.60;96992.06;4819978;29;20205;-74
2022/07/11 07:01:38;;;;;;;3.73;1.40;;;;;;;23.79;38.13;96994.03;4819853;29;20273;-73
2022/07/11 07:04:05;;;;;;;1.50;1.20;;;;;;;23.73;37.87;97003.41;4820636;29;20214;-74
2022/07/11 07:06:32;;;;;;;4.37;1.80;;;;;;;23.65;38.37;96998.06;4821253;29;20605;-73
2022/07/11 07:08:59;;;;;;;3.13;1.63;;;;;;;23.83;38.36;96992.75;4823025;29;20215;-75
2022/07/11 07:11:26;;;;;;;3.33;1.53;;;;;;;23.62;38.07;97008.13;4821890;29;20194;-72
2022/07/11 07:13:53;;;;;;;3.67;1.20;;;;;;;23.77;38.36;96988.91;4822836;29;20265;-73
2022/07/11 07:16:20;;;;;;;4.87;1.43;;;;;;;23.87;37.97;96994.09;4822702;29;20615;-73
2022/07/11 07:18:50;;;;;;;6.53;2.40;;;;;;;24.16;37.81;96986.75;4822045;29;20217;-76
2022/07/11 07:21:17;;;;;;;6.93;1.90;;;;;;;24.29;37.51;97000.41;4821683;29;20218;-75
2022/07/11 07:23:44;;;;;;;3.07;1.60;;;;;;;24.01;38.43;97010.25;4818925;29;20233;-75
2022/07/11 07:26:11;;;;;;;3.97;1.70;;;;;;;24.04;37.61;96988.84;4803679;29;20202;-75
2022/07/11 07:28:39;;;;;;;3.30;1.60;;;;;;;23.92;37.87;97008.56;4818885;29;20643;-76
2022/07/11 07:31:06;;;;;;;2.57;1.40;;;;;;;23.85;37.93;96988.97;4819560;29;20195;-75
2022/07/11 07:33:39;;;;;;;5.17;1.70;;;;;;;23.74;37.86;96999.78;4819616;29;20214;-75
2022/07/11 07:36:13;;;;;;;7.80;1.80;;;;;;;23.73;37.60;97008.72;4817963;29;20260;-74
2022/07/11 07:38:43;;;;;;;2.63;1.23;;;;;;;23.66;38.43;96998.91;4819295;29;20869;-75
2022/07/11 07:41:11;;;;;;;2.77;1.77;;;;;;;23.68;38.04;96991.66;4802451;29;20289;-75
2022/07/11 07:43:39;;;;;;;4.20;1.43;;;;;;;23.51;38.30;96990.66;4819206;29;20197;-76
2022/07/11 07:46:08;;;;;;;2.77;1.30;;;;;;;23.87;38.48;96986.16;4818385;29;20217;-75
2022/07/11 07:48:37;;;;;;;2.53;1.63;;;;;;;23.98;37.66;96986.78;4818616;29;20289;-74
2022/07/11 07:51:05;;;;;;;4.03;1.37;;;;;;;23.70;38.24;96995.78;4818758;29;20299;-74
2022/07/11 07:53:32;;;;;;;2.23;1.50;;;;;;;23.86;37.20;96990.66;4818394;29;20298;-75
2022/07/11 07:55:59;;;;;;;3.33;1.50;;;;;;;24.00;37.37;96990.09;4818832;29;20238;-74
2022/07/11 07:58:26;;;;;;;2.73;1.43;;;;;;;24.12;37.22;96988.03;4818435;29;20658;-76
2022/07/11 08:03:38;;;;;;;5.30;1.57;;;;;;;23.96;37.50;96990.56;4818800;29;20214;-75
2022/07/11 08:06:05;;;;;;;3.93;1.30;;;;;;;24.21;37.67;97001.16;4819296;29;20687;-74
2022/07/11 08:08:32;;;;;;;4.83;1.77;;;;;;;24.15;37.47;96993.84;4818886;29;20236;-75
2022/07/11 08:11:01;;;;;;;2.53;1.40;;;;;;;23.59;38.07;97003.97;4801725;29;20215;-75
2022/07/11 08:13:49;;;;;;;2.30;1.37;;;;;;;23.93;37.91;96996.13;4802680;29;20235;-75
2022/07/11 08:16:16;;;;;;;2.73;1.57;;;;;;;24.09;36.98;96989.19;4820093;29;20276;-75
2022/07/11 08:18:43;;;;;;;7.50;1.97;;;;;;;24.11;37.76;96981.91;4817888;29;20250;-74
2022/07/11 08:21:14;;;;;;;2.20;1.67;;;;;;;23.90;37.18;96984.06;4817943;29;20275;-77
2022/07/11 08:23:41;;;;;;;2.93;1.37;;;;;;;23.70;37.13;96994.97;4818182;29;20682;-77
2022/07/11 08:26:08;;;;;;;2.97;1.50;;;;;;;23.78;36.66;96992.41;4818010;29;20222;-74
2022/07/11 08:28:35;;;;;;;4.37;1.57;;;;;;;23.67;36.95;97001.38;4816962;29;20211;-75
2022/07/11 08:31:02;;;;;;;5.60;1.60;;;;;;;23.67;36.69;97006.69;4817994;29;20211;-74
2022/07/11 08:33:29;;;;;;;2.97;1.53;;;;;;;24.11;36.52;96997.78;4817690;29;20204;-76
2022/07/11 08:35:56;;;;;;;4.80;1.50;;;;;;;24.22;35.96;97018.72;4800928;29;20231;-76
2022/07/11 08:38:23;;;;;;;2.47;1.37;;;;;;;24.07;35.92;96982.41;4816267;29;20195;-76
2022/07/11 08:40:50;;;;;;;1.87;1.20;;;;;;;24.01;35.25;96953.84;4817510;29;20209;-76
2022/07/11 08:43:28;;;;;;;4.53;1.30;;;;;;;24.20;35.88;96996.88;4818138;29;20224;-75
2022/07/11 08:45:55;;;;;;;4.80;1.40;;;;;;;24.12;37.01;96985.41;4817525;29;20708;-75
2022/07/11 08:48:24;;;;;;;4.67;1.57;;;;;;;24.18;37.33;96964.44;4817475;29;20278;-75
2022/07/11 08:50:52;;;;;;;3.27;1.77;;;;;;;24.08;37.22;96987.53;4818162;29;20691;-76
2022/07/11 08:53:19;;;;;;;2.97;1.63;;;;;;;24.01;36.53;96980.31;4818126;29;20213;-75
2022/07/11 08:55:47;;;;;;;1.50;1.30;;;;;;;23.71;37.68;96986.88;4801229;29;20296;-76
2022/07/11 08:58:15;;;;;;;4.77;2.03;;;;;;;23.95;36.88;96983.56;4817560;29;20207;-75
2022/07/11 09:00:43;;;;;;;5.57;1.50;;;;;;;24.38;36.61;96975.63;4817973;29;20222;-75
2022/07/11 09:03:14;;;;;;;3.77;1.43;;;;;;;24.19;36.79;96997.03;4817435;29;20197;-75
2022/07/11 09:05:43;;;;;;;2.70;1.33;;;;;;;23.81;37.77;96998.19;4818178;29;20195;-74
2022/07/11 09:08:10;;;;;;;2.37;1.30;;;;;;;24.13;36.77;96997.66;4817517;29;20239;-75
2022/07/11 09:10:39;;;;;;;1.70;1.30;;;;;;;24.20;36.67;96983.66;4800975;29;20222;-74
2022/07/11 09:13:10;;;;;;;3.03;1.73;;;;;;;24.56;35.58;96983.53;4817825;29;20261;-74
2022/07/11 09:15:48;;;;;;;2.53;1.17;;;;;;;23.89;37.54;96973.63;4817228;29;20224;-77
2022/07/11 09:18:25;;;;;;;1.47;1.37;;;;;;;23.84;37.24;96981.19;4818266;29;20203;-75
2022/07/11 09:26:34;;;;;;;1.80;1.40;;;;;;;25.16;35.64;96981.66;4817906;29;20211;-77
2022/07/11 09:29:18;;;;;;;3.23;1.30;;;;;;;25.14;35.54;96983.63;4817041;29;20272;-76
2022/07/11 09:31:46;;;;;;;3.27;1.60;;;;;;;25.54;34.46;96986.41;4800882;29;20201;-76
2022/07/11 09:34:16;;;;;;;1.47;1.30;;;;;;;25.25;34.24;96970.91;4816804;29;20224;-75
2022/07/11 09:36:51;;;;;;;1.63;1.40;;;;;;;24.80;34.46;96935.97;4817023;29;20252;-75
2022/07/11 09:39:28;;;;;;;1.97;1.40;;;;;;;25.20;35.17;96994.44;4817542;29;20677;-76
2022/07/11 09:41:56;;;;;;;1.87;1.37;;;;;;;24.76;35.55;96988.47;4816760;29;20265;-75
2022/07/11 09:44:28;;;;;;;1.93;1.20;;;;;;;24.64;35.29;96997.66;4817506;29;20205;-74
2022/07/11 09:46:57;;;;;;;1.90;1.70;;;;;;;24.62;34.78;96983.72;4817827;29;20209;-78
2022/07/11 09:49:40;;;;;;;2.90;1.63;;;;;;;24.66;35.01;96997.47;4817727;29;20675;-75
2022/07/11 09:52:16;;;;;;;6.97;1.30;;;;;;;24.52;34.36;96984.84;4818129;29;20665;-75
2022/07/11 09:54:56;;;;;;;3.40;1.50;;;;;;;24.71;35.05;96993.34;4818449;29;20227;-75
2022/07/11 09:57:37;;;;;;;1.27;1.17;;;;;;;24.87;34.17;96968.81;4817440;29;20239;-75
2022/07/11 10:00:06;;;;;;;1.67;1.10;;;;;;;24.82;34.64;97008.19;4818374;29;20293;-75
2022/07/11 10:02:33;;;;;;;3.53;1.33;;;;;;;24.59;35.03;96983.19;4820089;29;20290;-75
2022/07/11 10:05:01;;;;;;;2.37;1.27;;;;;;;24.81;35.42;96993.28;4821192;29;20209;-75
2022/07/11 10:07:30;;;;;;;3.37;1.83;;;;;;;25.08;35.16;96985.09;4819777;29;20225;-75
2022/07/11 10:09:59;;;;;;;2.63;1.57;;;;;;;25.33;34.45;96988.63;4820591;29;20652;-76
2022/07/11 10:12:27;;;;;;;2.60;1.70;;;;;;;25.07;34.64;96956.09;4820085;29;20297;-74
2022/07/11 10:14:56;;;;;;;2.13;1.30;;;;;;;25.16;34.29;96998.41;4804438;29;20650;-75
2022/07/11 10:17:51;;;;;;;1.60;1.33;;;;;;;25.28;33.94;96993.59;4819447;29;20253;-76
2022/07/11 10:20:52;;;;;;;2.63;1.80;;;;;;;25.30;34.27;96997.75;4819696;29;20659;-76
2022/07/11 10:23:25;;;;;;;1.30;1.20;;;;;;;25.10;34.14;96987.59;4820553;29;20231;-76
2022/07/11 10:26:10;;;;;;;4.63;1.50;;;;;;;24.92;34.44;96979.75;4820075;29;20237;-75
2022/07/11 10:28:47;;;;;;;2.67;1.60;;;;;;;25.35;34.37;96995.44;4803486;29;20220;-75
2022/07/11 10:31:22;;;;;;;3.53;1.33;;;;;;;26.04;33.16;96994.22;4820377;29;20209;-76
2022/07/11 10:34:26;;;;;;;2.00;1.20;;;;;;;26.25;32.51;96991.91;4819433;29;20670;-74
2022/07/11 10:36:59;;;;;;;2.97;1.30;;;;;;;25.60;33.46;96996.34;4811308;29;20862;-76
2022/07/11 10:39:27;;;;;;;2.77;1.30;;;;;;;25.84;32.51;96991.88;4820135;29;20209;-75
2022/07/11 10:41:58;;;;;;;3.20;1.70;;;;;;;26.27;32.37;96980.13;4819349;29;20216;-76
2022/07/11 10:44:47;;;;;;;3.37;1.30;;;;;;;26.53;32.15;96993.19;4820035;29;20210;-74
2022/07/11 10:47:40;;;;;;;1.50;1.20;;;;;;;26.74;31.45;96998.81;4819441;29;20692;-76
2022/07/11 10:50:38;;;;;;;2.87;1.33;;;;;;;26.76;31.82;96994.16;4819620;29;20258;-74
2022/07/11 10:53:09;;;;;;;1.40;1.17;;;;;;;26.04;31.98;96986.25;4820289;29;20266;-74
2022/07/11 10:56:20;;;;;;;1.83;1.23;;;;;;;26.52;31.42;96988.88;4803302;29;20278;-74
2022/07/11 10:59:15;;;;;;;2.20;1.10;;;;;;;26.73;31.47;96986.50;4807596;29;20210;-74
2022/07/11 11:02:07;;;;;;;2.07;1.40;;;;;;;26.91;31.37;96987.13;4819759;29;20213;-76
2022/07/11 11:04:45;;;;;;;1.67;1.40;;;;;;;26.52;31.88;96986.22;4802911;29;20206;-74
2022/07/11 11:07:35;;;;;;;12.10;1.83;;;;;;;26.19;31.96;97000.56;4819469;29;20217;-75
2022/07/11 11:10:19;;;;;;;1.70;1.10;;;;;;;26.50;31.63;96998.84;4820117;29;20339;-75
2022/07/11 11:13:05;;;;;;;2.60;1.53;;;;;;;26.60;31.41;97000.28;4819513;29;20198;-76
2022/07/11 11:15:54;;;;;;;1.47;1.13;;;;;;;26.25;31.88;96991.91;4819806;29;20233;-77
2022/07/11 11:18:24;;;;;;;3.07;1.20;;;;;;;26.09;32.00;96995.41;4819766;29;20226;-75
2022/07/11 11:21:09;;;;;;;1.60;1.50;;;;;;;25.98;32.03;96989.56;4802755;29;20264;-76
2022/07/11 11:23:39;;;;;;;1.57;1.43;;;;;;;26.57;32.02;96983.88;4819594;29;20213;-77
2022/07/11 11:26:18;;;;;;;1.87;1.20;;;;;;;26.76;30.98;96996.81;4819987;29;20361;-76
2022/07/11 11:28:57;;;;;;;1.43;1.20;;;;;;;26.33;31.34;96984.75;4802573;29;20206;-76
2022/07/11 11:31:26;;;;;;;3.00;1.60;;;;;;;26.26;31.78;96996.22;4819738;29;20743;-75
2022/07/11 11:33:53;;;;;;;2.13;1.73;;;;;;;26.63;31.27;96996.47;4818724;29;20296;-73
2022/07/11 11:36:22;;;;;;;2.47;1.80;;;;;;;26.76;30.93;96986.16;4819313;29;20296;-76
2022/07/11 11:38:49;;;;;;;2.07;1.37;;;;;;;26.40;31.14;96969.78;4818771;29;20286;-74
2022/07/11 11:41:30;;;;;;;2.17;1.37;;;;;;;26.46;31.34;96997.53;4818942;29;20648;-75
2022/07/11 11:44:00;;;;;;;2.37;1.20;;;;;;;26.53;31.50;96988.69;4819526;29;20232;-76
2022/07/11 11:46:29;;;;;;;4.53;1.40;;;;;;;26.71;30.97;96999.09;4818660;29;20221;-75
2022/07/11 11:48:57;;;;;;;3.27;1.40;;;;;;;26.70;31.05;96986.81;4819408;29;20213;-76
2022/07/11 11:51:28;;;;;;;2.60;1.70;;;;;;;26.46;31.24;96984.25;4818482;29;20206;-75
2022/07/11 11:54:00;;;;;;;2.17;1.20;;;;;;;26.73;30.96;96988.34;4818853;29;20624;-74
2022/07/11 11:56:28;;;;;;;1.67;1.57;;;;;;;26.42;30.62;96985.59;4818765;29;20245;-75
2022/07/11 11:59:15;;;;;;;3.07;1.23;;;;;;;26.42;31.35;96978.41;4818094;29;20690;-74